High Tide — D5AA7 — position and weather

sailwx.info

Track history (hours):
 
Tides and Currents Weather Stations Pressure Air Temp Water Temp Dewpoint Dewpoint Depression Visibility Wind Speed Wind Dir Waves Ship Positions

High Tide

Last reported at 2017-Aug-21 09:48 UTC. Time now 2017-Aug-22 01:38 UTC.
Position N 24°57' E 119°06'.

Length 183 m; draft 7.5 m.

Type: Tanker. MMSI: 636015337.

Date/timePositionNaut miles runAvg speedWind from/ knotsBaromVisibWave heightAir tempDewpointWater temp
2017-Aug-21 09:48N 24°57' E 119°06'0 0.0
2017-Aug-21 09:12N 24°57' E 119°06'0 0.0
2017-Aug-21 09:00N 24°57' E 119°06'0 0.0
2017-Aug-21 05:54N 24°57' E 119°06'0 0.0
2017-Aug-21 05:24N 24°57' E 119°06'0 0.0
2017-Aug-21 05:00N 24°57' E 119°06'0 0.0
2017-Aug-20 19:00N 24°57' E 119°07'0 0.0
2017-Aug-20 17:12N 24°57' E 119°07'0 0.0
2017-Aug-20 15:36N 24°57' E 119°07'0 0.0
2017-Aug-20 15:30N 24°57' E 119°07'0 0.0
2017-Aug-20 10:36N 24°57' E 119°07'0 0.0
2017-Aug-20 10:24N 24°57' E 119°07'0 0.0
2017-Aug-20 07:36N 24°57' E 119°07'0 0.0
2017-Aug-20 07:24N 24°57' E 119°07'0 0.0
2017-Aug-20 07:00N 24°57' E 119°07'0 0.0
2017-Aug-20 04:48N 24°57' E 119°07'0 0.0
2017-Aug-20 04:24N 24°57' E 119°07'0 0.0
2017-Aug-20 04:00N 24°57' E 119°07'0 0.0
2017-Aug-20 03:30N 24°57' E 119°07'0 0.1
2017-Aug-20 01:48N 24°57' E 119°07'0 0.0
2017-Aug-19 21:00N 24°57' E 119°07'0 0.0
2017-Aug-19 18:06N 24°57' E 119°07'0 0.0
2017-Aug-19 18:00N 24°57' E 119°07'0 0.1
2017-Aug-19 17:30N 24°57' E 119°07'0 0.0
2017-Aug-19 17:00N 24°57' E 119°07'0 0.0
2017-Aug-19 16:30N 24°57' E 119°07'0 0.0
2017-Aug-19 07:42N 24°57' E 119°07'0 0.0
2017-Aug-19 07:24N 24°57' E 119°07'0 0.0
2017-Aug-19 06:54N 24°57' E 119°07'0 0.0
2017-Aug-19 06:30N 24°57' E 119°07'0 0.0
2017-Aug-19 05:42N 24°57' E 119°07'0 0.0
2017-Aug-19 05:24N 24°57' E 119°07'0 0.0
2017-Aug-19 04:54N 24°57' E 119°07'0 0.0
2017-Aug-19 04:18N 24°57' E 119°07'0 0.0
2017-Aug-19 03:42N 24°57' E 119°07'0 0.0
2017-Aug-19 03:24N 24°57' E 119°07'0 0.0
2017-Aug-19 02:48N 24°57' E 119°07'0 0.0
2017-Aug-19 02:24N 24°57' E 119°07'0 0.0
2017-Aug-19 01:54N 24°57' E 119°07'0 0.0
2017-Aug-19 01:30N 24°57' E 119°07'0 0.1
2017-Aug-19 00:42N 24°57' E 119°07'0 0.1
2017-Aug-19 00:30N 24°57' E 119°07'0 0.0
2017-Aug-19 00:00N 24°57' E 119°07'0 0.0
2017-Aug-18 21:12N 24°57' E 119°07'0 0.0
2017-Aug-18 20:12N 24°57' E 119°07'0 0.3
2017-Aug-18 20:00N 24°57' E 119°07'0 0.0
2017-Aug-18 19:24N 24°57' E 119°07'0 0.1
2017-Aug-18 18:18N 24°57' E 119°07'0 0.4
2017-Aug-18 18:00N 24°57' E 119°07'3 5.9
2017-Aug-18 17:30N 24°54' E 119°06'3 6.7
2017-Aug-18 17:00N 24°51' E 119°09'4 7.4
2017-Aug-18 16:30N 24°48' E 119°08'510.3
2017-Aug-18 16:00N 24°43' E 119°09'611.4
2017-Aug-18 15:30N 24°37' E 119°10'713.9
2017-Aug-18 14:59N 24°30' E 119°10'1013.4
2017-Aug-18 14:16N 24°21' E 119°13'2612.2
2017-Aug-18 12:09N 24°04' E 118°52'213.9
2017-Aug-18 12:00N 24°03' E 118°49'1014.5
2017-Aug-18 11:19N 23°57' E 118°41'514.7
2017-Aug-18 11:00N 23°55' E 118°36'814.9
2017-Aug-18 10:28N 23°50' E 118°29'714.4
2017-Aug-18 10:00N 23°47' E 118°23'814.9
2017-Aug-18 09:29N 23°43' E 118°15'715.5
2017-Aug-18 09:00N 23°40' E 118°08'1114.9
2017-Aug-18 08:16N 23°35' E 117°58'415.0
2017-Aug-18 08:01N 23°34' E 117°54'815.0
2017-Aug-18 07:30N 23°30' E 117°47'233 8.2
2017-Aug-17 02:52N 22°48' E 113°37'511.8
2017-Aug-17 02:27N 22°52' E 113°34'4 9.7
2017-Aug-17 02:00N 22°56' E 113°33'0 0.3
2017-Aug-17 00:45N 22°56' E 113°33'0 0.0
2017-Aug-17 00:21N 22°56' E 113°33'0 0.0
2017-Aug-16 23:51N 22°56' E 113°33'0 0.0
2017-Aug-16 23:15N 22°56' E 113°33'0 0.0
2017-Aug-16 22:57N 22°56' E 113°33'0 0.0
2017-Aug-16 21:21N 22°56' E 113°33'0 0.0
2017-Aug-16 20:45N 22°56' E 113°33'0 0.0
2017-Aug-16 20:15N 22°56' E 113°33'0 0.0
2017-Aug-16 19:45N 22°56' E 113°33'0 0.0
2017-Aug-16 18:27N 22°56' E 113°33'0 0.0
2017-Aug-16 17:51N 22°56' E 113°33'0 0.0
2017-Aug-16 17:27N 22°56' E 113°33'0 0.0
2017-Aug-16 16:39N 22°56' E 113°33'0 0.0
2017-Aug-16 16:21N 22°56' E 113°33'0 0.0
2017-Aug-16 15:51N 22°56' E 113°33'0 0.0
2017-Aug-16 15:09N 22°56' E 113°33'0 0.0
2017-Aug-16 14:39N 22°56' E 113°33'0 0.0
2017-Aug-16 14:15N 22°56' E 113°33'0 0.0
2017-Aug-16 13:33N 22°56' E 113°33'0 0.0
2017-Aug-16 13:03N 22°56' E 113°33'0 0.0
2017-Aug-16 12:45N 22°56' E 113°33'0 0.0
2017-Aug-16 12:15N 22°56' E 113°33'0 0.0
2017-Aug-16 11:33N 22°56' E 113°33'0 0.0
2017-Aug-16 11:27N 22°56' E 113°33'0 0.0
2017-Aug-16 09:51N 22°56' E 113°33'0 0.0
2017-Aug-16 06:57N 22°56' E 113°33'0 0.0
2017-Aug-16 04:51N 22°56' E 113°33'0 0.0
2017-Aug-16 03:27N 22°56' E 113°33'0 0.0
2017-Aug-16 02:51N 22°56' E 113°33'0 0.0
2017-Aug-16 02:21N 22°56' E 113°33'0 0.0
2017-Aug-16 01:57N 22°56' E 113°33'0 0.0
2017-Aug-16 01:21N 22°56' E 113°33'0 0.0
2017-Aug-16 00:51N 22°56' E 113°33'0 0.0
2017-Aug-16 00:03N 22°56' E 113°33'0 0.0
2017-Aug-15 20:51N 22°56' E 113°33'0 0.0
2017-Aug-15 20:15N 22°56' E 113°33'0 0.0
2017-Aug-15 19:33N 22°56' E 113°33'0 0.0
2017-Aug-15 19:21N 22°56' E 113°33'0 0.0
2017-Aug-15 17:57N 22°56' E 113°33'0 0.0
2017-Aug-15 17:03N 22°56' E 113°33'0 0.0
2017-Aug-15 16:51N 22°56' E 113°33'0 0.0
2017-Aug-15 15:33N 22°56' E 113°33'0 0.0
2017-Aug-15 15:27N 22°56' E 113°33'0 0.0
2017-Aug-15 14:03N 22°56' E 113°33'0 0.0
2017-Aug-15 13:57N 22°56' E 113°33'0 0.0
2017-Aug-15 13:27N 22°56' E 113°33'0 0.0
2017-Aug-15 12:57N 22°56' E 113°33'0 0.0
2017-Aug-15 12:27N 22°56' E 113°33'0 0.0
2017-Aug-15 11:57N 22°56' E 113°33'0 0.0
2017-Aug-15 11:27N 22°56' E 113°33'0 0.0
2017-Aug-15 09:39N 22°56' E 113°33'0 0.0
2017-Aug-15 09:21N 22°56' E 113°33'0 0.0
2017-Aug-15 08:57N 22°56' E 113°33'0 0.0
2017-Aug-15 08:21N 22°56' E 113°33'0 0.0
2017-Aug-15 07:21N 22°56' E 113°33'0 0.0
2017-Aug-15 06:57N 22°56' E 113°33'0 0.0
2017-Aug-15 06:27N 22°56' E 113°33'0 0.0
2017-Aug-15 05:57N 22°56' E 113°33'0 0.0
2017-Aug-15 05:27N 22°56' E 113°33'0 0.0
2017-Aug-15 04:51N 22°56' E 113°33'0 0.0
2017-Aug-15 04:27N 22°56' E 113°33'0 0.0
2017-Aug-15 03:33N 22°56' E 113°33'0 0.0
2017-Aug-15 03:09N 22°56' E 113°33'0 0.0
2017-Aug-15 02:45N 22°56' E 113°33'0 0.0
2017-Aug-15 02:27N 22°56' E 113°33'0 0.0
2017-Aug-15 01:57N 22°56' E 113°33'0 0.0
2017-Aug-15 01:09N 22°56' E 113°33'0 0.0
2017-Aug-15 00:39N 22°56' E 113°33'0 0.0
2017-Aug-15 00:21N 22°56' E 113°33'0 0.0
2017-Aug-14 23:51N 22°56' E 113°33'0 0.0
2017-Aug-14 23:27N 22°56' E 113°33'0 0.0
2017-Aug-14 22:51N 22°56' E 113°33'0 0.0
2017-Aug-14 21:21N 22°56' E 113°33'0 0.0
2017-Aug-14 19:57N 22°56' E 113°33'0 0.0
2017-Aug-14 19:21N 22°56' E 113°33'0 0.0
2017-Aug-14 18:39N 22°56' E 113°33'0 0.0
2017-Aug-14 18:15N 22°56' E 113°33'0 0.0
2017-Aug-14 17:57N 22°56' E 113°33'0 0.0
2017-Aug-14 17:27N 22°56' E 113°33'0 0.0
2017-Aug-14 16:57N 22°56' E 113°33'0 0.0
2017-Aug-14 16:27N 22°56' E 113°33'0 0.0
2017-Aug-14 15:45N 22°56' E 113°33'0 0.0
2017-Aug-14 15:27N 22°56' E 113°33'0 0.0
2017-Aug-14 14:57N 22°56' E 113°33'0 0.0
2017-Aug-14 13:57N 22°56' E 113°33'0 0.0
2017-Aug-14 12:51N 22°56' E 113°33'0 0.0
2017-Aug-14 12:21N 22°56' E 113°33'0 0.0
2017-Aug-14 11:57N 22°56' E 113°33'0 0.0
2017-Aug-14 11:27N 22°56' E 113°33'0 0.0
2017-Aug-14 10:57N 22°56' E 113°33'0 0.0
2017-Aug-14 10:21N 22°56' E 113°33'0 0.1
2017-Aug-14 09:54N 22°56' E 113°33'0 0.8
2017-Aug-14 09:30N 22°56' E 113°33'3 6.5
2017-Aug-14 09:00N 22°53' E 113°34'5 9.1
2017-Aug-14 08:30N 22°49' E 113°36'5 9.9
2017-Aug-14 07:59N 22°45' E 113°39'  
Track history (hours):
 
Tides and Currents Weather Stations Pressure Air Temp Water Temp Dewpoint Dewpoint Depression Visibility Wind Speed Wind Dir Waves Ship Positions

High Tide

Last reported at 2017-Aug-21 09:48 UTC. Time now 2017-Aug-22 01:38 UTC.
Position N 24°57' E 119°06'.

Length 183 m; draft 7.5 m.

Type: Tanker. MMSI: 636015337.

Date/timePositionNaut miles runAvg speedWind from/ knotsBaromVisibWave heightAir tempDewpointWater temp
2017-Aug-21 09:48N 24°57' E 119°06'0 0.0
2017-Aug-21 09:12N 24°57' E 119°06'0 0.0
2017-Aug-21 09:00N 24°57' E 119°06'0 0.0
2017-Aug-21 05:54N 24°57' E 119°06'0 0.0
2017-Aug-21 05:24N 24°57' E 119°06'0 0.0
2017-Aug-21 05:00N 24°57' E 119°06'0 0.0
2017-Aug-20 19:00N 24°57' E 119°07'0 0.0
2017-Aug-20 17:12N 24°57' E 119°07'0 0.0
2017-Aug-20 15:36N 24°57' E 119°07'0 0.0
2017-Aug-20 15:30N 24°57' E 119°07'0 0.0
2017-Aug-20 10:36N 24°57' E 119°07'0 0.0
2017-Aug-20 10:24N 24°57' E 119°07'0 0.0
2017-Aug-20 07:36N 24°57' E 119°07'0 0.0
2017-Aug-20 07:24N 24°57' E 119°07'0 0.0
2017-Aug-20 07:00N 24°57' E 119°07'0 0.0
2017-Aug-20 04:48N 24°57' E 119°07'0 0.0
2017-Aug-20 04:24N 24°57' E 119°07'0 0.0
2017-Aug-20 04:00N 24°57' E 119°07'0 0.0
2017-Aug-20 03:30N 24°57' E 119°07'0 0.1
2017-Aug-20 01:48N 24°57' E 119°07'0 0.0
2017-Aug-19 21:00N 24°57' E 119°07'0 0.0
2017-Aug-19 18:06N 24°57' E 119°07'0 0.0
2017-Aug-19 18:00N 24°57' E 119°07'0 0.1
2017-Aug-19 17:30N 24°57' E 119°07'0 0.0
2017-Aug-19 17:00N 24°57' E 119°07'0 0.0
2017-Aug-19 16:30N 24°57' E 119°07'0 0.0
2017-Aug-19 07:42N 24°57' E 119°07'0 0.0
2017-Aug-19 07:24N 24°57' E 119°07'0 0.0
2017-Aug-19 06:54N 24°57' E 119°07'0 0.0
2017-Aug-19 06:30N 24°57' E 119°07'0 0.0
2017-Aug-19 05:42N 24°57' E 119°07'0 0.0
2017-Aug-19 05:24N 24°57' E 119°07'0 0.0
2017-Aug-19 04:54N 24°57' E 119°07'0 0.0
2017-Aug-19 04:18N 24°57' E 119°07'0 0.0
2017-Aug-19 03:42N 24°57' E 119°07'0 0.0
2017-Aug-19 03:24N 24°57' E 119°07'0 0.0
2017-Aug-19 02:48N 24°57' E 119°07'0 0.0
2017-Aug-19 02:24N 24°57' E 119°07'0 0.0
2017-Aug-19 01:54N 24°57' E 119°07'0 0.0
2017-Aug-19 01:30N 24°57' E 119°07'0 0.1
2017-Aug-19 00:42N 24°57' E 119°07'0 0.1
2017-Aug-19 00:30N 24°57' E 119°07'0 0.0
2017-Aug-19 00:00N 24°57' E 119°07'0 0.0
2017-Aug-18 21:12N 24°57' E 119°07'0 0.0
2017-Aug-18 20:12N 24°57' E 119°07'0 0.3
2017-Aug-18 20:00N 24°57' E 119°07'0 0.0
2017-Aug-18 19:24N 24°57' E 119°07'0 0.1
2017-Aug-18 18:18N 24°57' E 119°07'0 0.4
2017-Aug-18 18:00N 24°57' E 119°07'3 5.9
2017-Aug-18 17:30N 24°54' E 119°06'3 6.7
2017-Aug-18 17:00N 24°51' E 119°09'4 7.4
2017-Aug-18 16:30N 24°48' E 119°08'510.3
2017-Aug-18 16:00N 24°43' E 119°09'611.4
2017-Aug-18 15:30N 24°37' E 119°10'713.9
2017-Aug-18 14:59N 24°30' E 119°10'1013.4
2017-Aug-18 14:16N 24°21' E 119°13'2612.2
2017-Aug-18 12:09N 24°04' E 118°52'213.9
2017-Aug-18 12:00N 24°03' E 118°49'1014.5
2017-Aug-18 11:19N 23°57' E 118°41'514.7
2017-Aug-18 11:00N 23°55' E 118°36'814.9
2017-Aug-18 10:28N 23°50' E 118°29'714.4
2017-Aug-18 10:00N 23°47' E 118°23'814.9
2017-Aug-18 09:29N 23°43' E 118°15'715.5
2017-Aug-18 09:00N 23°40' E 118°08'1114.9
2017-Aug-18 08:16N 23°35' E 117°58'415.0
2017-Aug-18 08:01N 23°34' E 117°54'815.0
2017-Aug-18 07:30N 23°30' E 117°47'233 8.2
2017-Aug-17 02:52N 22°48' E 113°37'511.8
2017-Aug-17 02:27N 22°52' E 113°34'4 9.7
2017-Aug-17 02:00N 22°56' E 113°33'0 0.3
2017-Aug-17 00:45N 22°56' E 113°33'0 0.0
2017-Aug-17 00:21N 22°56' E 113°33'0 0.0
2017-Aug-16 23:51N 22°56' E 113°33'0 0.0
2017-Aug-16 23:15N 22°56' E 113°33'0 0.0
2017-Aug-16 22:57N 22°56' E 113°33'0 0.0
2017-Aug-16 21:21N 22°56' E 113°33'0 0.0
2017-Aug-16 20:45N 22°56' E 113°33'0 0.0
2017-Aug-16 20:15N 22°56' E 113°33'0 0.0
2017-Aug-16 19:45N 22°56' E 113°33'0 0.0
2017-Aug-16 18:27N 22°56' E 113°33'0 0.0
2017-Aug-16 17:51N 22°56' E 113°33'0 0.0
2017-Aug-16 17:27N 22°56' E 113°33'0 0.0
2017-Aug-16 16:39N 22°56' E 113°33'0 0.0
2017-Aug-16 16:21N 22°56' E 113°33'0 0.0
2017-Aug-16 15:51N 22°56' E 113°33'0 0.0
2017-Aug-16 15:09N 22°56' E 113°33'0 0.0
2017-Aug-16 14:39N 22°56' E 113°33'0 0.0
2017-Aug-16 14:15N 22°56' E 113°33'0 0.0
2017-Aug-16 13:33N 22°56' E 113°33'0 0.0
2017-Aug-16 13:03N 22°56' E 113°33'0 0.0
2017-Aug-16 12:45N 22°56' E 113°33'0 0.0
2017-Aug-16 12:15N 22°56' E 113°33'0 0.0
2017-Aug-16 11:33N 22°56' E 113°33'0 0.0
2017-Aug-16 11:27N 22°56' E 113°33'0 0.0
2017-Aug-16 09:51N 22°56' E 113°33'0 0.0
2017-Aug-16 06:57N 22°56' E 113°33'0 0.0
2017-Aug-16 04:51N 22°56' E 113°33'0 0.0
2017-Aug-16 03:27N 22°56' E 113°33'0 0.0
2017-Aug-16 02:51N 22°56' E 113°33'0 0.0
2017-Aug-16 02:21N 22°56' E 113°33'0 0.0
2017-Aug-16 01:57N 22°56' E 113°33'0 0.0
2017-Aug-16 01:21N 22°56' E 113°33'0 0.0
2017-Aug-16 00:51N 22°56' E 113°33'0 0.0
2017-Aug-16 00:03N 22°56' E 113°33'0 0.0
2017-Aug-15 20:51N 22°56' E 113°33'0 0.0
2017-Aug-15 20:15N 22°56' E 113°33'0 0.0
2017-Aug-15 19:33N 22°56' E 113°33'0 0.0
2017-Aug-15 19:21N 22°56' E 113°33'0 0.0
2017-Aug-15 17:57N 22°56' E 113°33'0 0.0
2017-Aug-15 17:03N 22°56' E 113°33'0 0.0
2017-Aug-15 16:51N 22°56' E 113°33'0 0.0
2017-Aug-15 15:33N 22°56' E 113°33'0 0.0
2017-Aug-15 15:27N 22°56' E 113°33'0 0.0
2017-Aug-15 14:03N 22°56' E 113°33'0 0.0
2017-Aug-15 13:57N 22°56' E 113°33'0 0.0
2017-Aug-15 13:27N 22°56' E 113°33'0 0.0
2017-Aug-15 12:57N 22°56' E 113°33'0 0.0
2017-Aug-15 12:27N 22°56' E 113°33'0 0.0
2017-Aug-15 11:57N 22°56' E 113°33'0 0.0
2017-Aug-15 11:27N 22°56' E 113°33'0 0.0
2017-Aug-15 09:39N 22°56' E 113°33'0 0.0
2017-Aug-15 09:21N 22°56' E 113°33'0 0.0
2017-Aug-15 08:57N 22°56' E 113°33'0 0.0
2017-Aug-15 08:21N 22°56' E 113°33'0 0.0
2017-Aug-15 07:21N 22°56' E 113°33'0 0.0
2017-Aug-15 06:57N 22°56' E 113°33'0 0.0
2017-Aug-15 06:27N 22°56' E 113°33'0 0.0
2017-Aug-15 05:57N 22°56' E 113°33'0 0.0
2017-Aug-15 05:27N 22°56' E 113°33'0 0.0
2017-Aug-15 04:51N 22°56' E 113°33'0 0.0
2017-Aug-15 04:27N 22°56' E 113°33'0 0.0
2017-Aug-15 03:33N 22°56' E 113°33'0 0.0
2017-Aug-15 03:09N 22°56' E 113°33'0 0.0
2017-Aug-15 02:45N 22°56' E 113°33'0 0.0
2017-Aug-15 02:27N 22°56' E 113°33'0 0.0
2017-Aug-15 01:57N 22°56' E 113°33'0 0.0
2017-Aug-15 01:09N 22°56' E 113°33'0 0.0
2017-Aug-15 00:39N 22°56' E 113°33'0 0.0
2017-Aug-15 00:21N 22°56' E 113°33'0 0.0
2017-Aug-14 23:51N 22°56' E 113°33'0 0.0
2017-Aug-14 23:27N 22°56' E 113°33'0 0.0
2017-Aug-14 22:51N 22°56' E 113°33'0 0.0
2017-Aug-14 21:21N 22°56' E 113°33'0 0.0
2017-Aug-14 19:57N 22°56' E 113°33'0 0.0
2017-Aug-14 19:21N 22°56' E 113°33'0 0.0
2017-Aug-14 18:39N 22°56' E 113°33'0 0.0
2017-Aug-14 18:15N 22°56' E 113°33'0 0.0
2017-Aug-14 17:57N 22°56' E 113°33'0 0.0
2017-Aug-14 17:27N 22°56' E 113°33'0 0.0
2017-Aug-14 16:57N 22°56' E 113°33'0 0.0
2017-Aug-14 16:27N 22°56' E 113°33'0 0.0
2017-Aug-14 15:45N 22°56' E 113°33'0 0.0
2017-Aug-14 15:27N 22°56' E 113°33'0 0.0
2017-Aug-14 14:57N 22°56' E 113°33'0 0.0
2017-Aug-14 13:57N 22°56' E 113°33'0 0.0
2017-Aug-14 12:51N 22°56' E 113°33'0 0.0
2017-Aug-14 12:21N 22°56' E 113°33'0 0.0
2017-Aug-14 11:57N 22°56' E 113°33'0 0.0
2017-Aug-14 11:27N 22°56' E 113°33'0 0.0
2017-Aug-14 10:57N 22°56' E 113°33'0 0.0
2017-Aug-14 10:21N 22°56' E 113°33'0 0.1
2017-Aug-14 09:54N 22°56' E 113°33'0 0.8
2017-Aug-14 09:30N 22°56' E 113°33'3 6.5
2017-Aug-14 09:00N 22°53' E 113°34'5 9.1
2017-Aug-14 08:30N 22°49' E 113°36'5 9.9
2017-Aug-14 07:59N 22°45' E 113°39'  

Dump ship's entire track history